7QBTC FALA-FXMM
Flight info
| Callsign | 7QBTC |
|---|---|
| Flight time | N/A |
| Altitude | 30000 |
| Route | LIV DCT ATUXO DCT MZV |
| Aircraft | HDJT/L-SABDGRWY/HB2 |
Departure
| Time | 2026-05-07 21:23 |
|---|---|
| Airport | Lanseria International Airport (FALA) |
Arrival
| Time | N/A |
|---|---|
| Airport | Moshoeshoe I International Airport (FXMM) |
| Time | Latitude | Longitude | Altitude | Speed | Heading |
|---|---|---|---|---|---|
| 2026-05-07 20:58 | -25.93419 | 27.92696 | 4519 ft | 0 kts | 228° |
| 2026-05-07 21:16 | -25.93428 | 27.92695 | 4519 ft | 5 kts | 168° |
| 2026-05-07 21:16 | -25.93491 | 27.92745 | 4518 ft | 15 kts | 149° |
| 2026-05-07 21:16 | -25.93509 | 27.92843 | 4517 ft | 13 kts | 53° |
| 2026-05-07 21:17 | -25.93456 | 27.92911 | 4518 ft | 10 kts | 48° |
| 2026-05-07 21:17 | -25.93407 | 27.92971 | 4518 ft | 12 kts | 48° |
| 2026-05-07 21:17 | -25.93342 | 27.93049 | 4518 ft | 16 kts | 50° |
| 2026-05-07 21:17 | -25.93262 | 27.93147 | 4518 ft | 17 kts | 45° |
| 2026-05-07 21:18 | -25.93192 | 27.93231 | 4518 ft | 13 kts | 48° |
| 2026-05-07 21:18 | -25.93137 | 27.93298 | 4518 ft | 10 kts | 47° |
| 2026-05-07 21:18 | -25.93094 | 27.93349 | 4518 ft | 8 kts | 47° |
| 2026-05-07 21:18 | -25.93056 | 27.93394 | 4518 ft | 11 kts | 46° |
| 2026-05-07 21:19 | -25.92993 | 27.93469 | 4518 ft | 16 kts | 47° |
| 2026-05-07 21:19 | -25.92921 | 27.93556 | 4518 ft | 15 kts | 46° |
| 2026-05-07 21:19 | -25.92865 | 27.93628 | 4517 ft | 10 kts | 68° |
| 2026-05-07 21:19 | -25.92882 | 27.93687 | 4516 ft | 8 kts | 139° |
| 2026-05-07 21:20 | -25.92911 | 27.93713 | 4515 ft | 0 kts | 143° |
| 2026-05-07 21:21 | -25.92944 | 27.93739 | 4512 ft | 13 kts | 143° |
| 2026-05-07 21:22 | -25.93001 | 27.93741 | 4511 ft | 2 kts | 243° |
| 2026-05-07 21:22 | -25.93046 | 27.93688 | 4512 ft | 35 kts | 226° |
| 2026-05-07 21:22 | -25.93349 | 27.93320 | 4514 ft | 92 kts | 226° |
| 2026-05-07 21:22 | -25.93889 | 27.92675 | 4562 ft | 129 kts | 229° |
| 2026-05-07 21:23 | -25.94534 | 27.91860 | 4751 ft | 153 kts | 227° |
| 2026-05-07 21:23 | -25.95525 | 27.91266 | 5040 ft | 172 kts | 185° |
| 2026-05-07 21:23 | -25.96759 | 27.91354 | 5755 ft | 189 kts | 178° |
| 2026-05-07 21:23 | -25.98102 | 27.91374 | 6607 ft | 202 kts | 185° |
| 2026-05-07 21:24 | -25.99485 | 27.91250 | 7683 ft | 198 kts | 187° |
| 2026-05-07 21:24 | -26.00943 | 27.91203 | 8187 ft | 221 kts | 184° |
| 2026-05-07 21:24 | -26.02506 | 27.91196 | 9095 ft | 222 kts | 185° |
| 2026-05-07 21:24 | -26.04051 | 27.91154 | 10028 ft | 227 kts | 186° |
| 2026-05-07 21:25 | -26.05657 | 27.91115 | 10835 ft | 233 kts | 186° |
| 2026-05-07 21:25 | -26.07302 | 27.91094 | 11623 ft | 239 kts | 186° |
| 2026-05-07 21:25 | -26.08960 | 27.91052 | 12413 ft | 243 kts | 187° |
| 2026-05-07 21:25 | -26.10671 | 27.91012 | 13187 ft | 249 kts | 188° |
| 2026-05-07 21:26 | -26.12422 | 27.90977 | 13966 ft | 254 kts | 189° |
| 2026-05-07 21:26 | -26.14213 | 27.90941 | 14667 ft | 258 kts | 189° |
| 2026-05-07 21:26 | -26.16022 | 27.90900 | 15369 ft | 262 kts | 189° |
| 2026-05-07 21:26 | -26.17860 | 27.90854 | 16077 ft | 265 kts | 189° |
| 2026-05-07 21:27 | -26.19709 | 27.90817 | 16774 ft | 269 kts | 189° |
| 2026-05-07 21:27 | -26.21592 | 27.90780 | 17453 ft | 272 kts | 189° |